British Envoy — MNAN4 — position and weather

sailwx.info

Track history (hours):
 
Tides and Currents Weather Stations Pressure Air Temp Water Temp Dewpoint Dewpoint Depression Visibility Wind Speed Wind Dir Waves Ship Positions

British Envoy

Last reported at 2015-Mar-27 12:00 UTC. Time now 2015-Mar-29 09:27 UTC.
Position S 32°00' E 029°24'.

Length 184.2 m; beam 27.4 m; draft 11.3 m.

Type: Tanker. MMSI: 235011280.

Wind from 230 at 25 knots

Waves 2.5 meters (8 feet), 4 second period

Barometer 1015.4 mb
Air temperature 24.0 ° C
Visibility: greater than 5.4 NM
Dewpoint 19.4 ° C

Date/timePositionNaut miles runAvg speedWind from/ knotsBaromVisibWave heightAir tempDewpointWater temp
2015-Mar-27 12:00S 32°00' E 029°24'13112.1 230 / 251015.4 5.4 2.524.019.4
2015-Mar-27 01:13S 30°19' E 031°01'1012.8
2015-Mar-27 00:26S 30°10' E 031°07'1112.7
2015-Mar-26 23:33S 29°59' E 031°08'8 8.1
2015-Mar-26 22:33S 29°52' E 031°04'2 2.0
2015-Mar-26 21:30S 29°53' E 031°02'0 0.0
2015-Mar-26 20:30S 29°53' E 031°02'0 0.0
2015-Mar-24 19:05S 29°53' E 031°02'1 2.0
2015-Mar-24 18:33S 29°53' E 031°03'8 7.9
2015-Mar-24 17:33S 29°51' E 031°12'3 3.4
2015-Mar-24 16:33S 29°51' E 031°16'0 0.1
2015-Mar-24 15:33S 29°51' E 031°16'0 0.1
2015-Mar-24 14:33S 29°51' E 031°16'1 0.5
2015-Mar-24 13:33S 29°51' E 031°15'0 0.3
2015-Mar-24 12:33S 29°51' E 031°15'0 0.1
2015-Mar-24 11:33S 29°51' E 031°15'0 0.3
2015-Mar-24 10:33S 29°51' E 031°15'0 0.3
2015-Mar-24 09:33S 29°51' E 031°16'0 0.2
2015-Mar-24 08:33S 29°51' E 031°16'2 1.8
2015-Mar-24 07:33S 29°52' E 031°14'0 0.3
2015-Mar-24 06:33S 29°52' E 031°14'0 0.4
2015-Mar-24 05:33S 29°52' E 031°15'0 0.3
2015-Mar-24 04:33S 29°52' E 031°15'5 4.6
2015-Mar-24 03:33S 29°56' E 031°12'3911.4
2015-Mar-24 00:09S 30°34' E 031°07'711.0
2015-Mar-23 23:32S 30°41' E 031°07'1410.8
2015-Mar-23 22:13S 30°55' E 031°08'  
2015-Mar-19 21:32S 33°02' E 027°55'1 0.0
2015-Mar-19 06:16S 33°02' E 027°56'9 1.0
2015-Mar-18 20:26S 33°11' E 027°55'19312.8
2015-Mar-18 05:19S 30°54' E 030°36'3912.7
2015-Mar-18 02:17S 30°21' E 030°59'912.1
2015-Mar-18 01:33S 30°14' E 031°04'1111.2
2015-Mar-18 00:33S 30°03' E 031°08'1010.2
2015-Mar-17 23:33S 29°53' E 031°09'6 5.9
2015-Mar-17 22:28S 29°53' E 031°02'  
Track history (hours):
 
Tides and Currents Weather Stations Pressure Air Temp Water Temp Dewpoint Dewpoint Depression Visibility Wind Speed Wind Dir Waves Ship Positions

British Envoy

Last reported at 2015-Mar-27 12:00 UTC. Time now 2015-Mar-29 09:27 UTC.
Position S 32°00' E 029°24'.

Length 184.2 m; beam 27.4 m; draft 11.3 m.

Type: Tanker. MMSI: 235011280.

Wind from 230 at 25 knots

Waves 2.5 meters (8 feet), 4 second period

Barometer 1015.4 mb
Air temperature 24.0 ° C
Visibility: greater than 5.4 NM
Dewpoint 19.4 ° C

Date/timePositionNaut miles runAvg speedWind from/ knotsBaromVisibWave heightAir tempDewpointWater temp
2015-Mar-27 12:00S 32°00' E 029°24'13112.1 230 / 251015.4 5.4 2.524.019.4
2015-Mar-27 01:13S 30°19' E 031°01'1012.8
2015-Mar-27 00:26S 30°10' E 031°07'1112.7
2015-Mar-26 23:33S 29°59' E 031°08'8 8.1
2015-Mar-26 22:33S 29°52' E 031°04'2 2.0
2015-Mar-26 21:30S 29°53' E 031°02'0 0.0
2015-Mar-26 20:30S 29°53' E 031°02'0 0.0
2015-Mar-24 19:05S 29°53' E 031°02'1 2.0
2015-Mar-24 18:33S 29°53' E 031°03'8 7.9
2015-Mar-24 17:33S 29°51' E 031°12'3 3.4
2015-Mar-24 16:33S 29°51' E 031°16'0 0.1
2015-Mar-24 15:33S 29°51' E 031°16'0 0.1
2015-Mar-24 14:33S 29°51' E 031°16'1 0.5
2015-Mar-24 13:33S 29°51' E 031°15'0 0.3
2015-Mar-24 12:33S 29°51' E 031°15'0 0.1
2015-Mar-24 11:33S 29°51' E 031°15'0 0.3
2015-Mar-24 10:33S 29°51' E 031°15'0 0.3
2015-Mar-24 09:33S 29°51' E 031°16'0 0.2
2015-Mar-24 08:33S 29°51' E 031°16'2 1.8
2015-Mar-24 07:33S 29°52' E 031°14'0 0.3
2015-Mar-24 06:33S 29°52' E 031°14'0 0.4
2015-Mar-24 05:33S 29°52' E 031°15'0 0.3
2015-Mar-24 04:33S 29°52' E 031°15'5 4.6
2015-Mar-24 03:33S 29°56' E 031°12'3911.4
2015-Mar-24 00:09S 30°34' E 031°07'711.0
2015-Mar-23 23:32S 30°41' E 031°07'1410.8
2015-Mar-23 22:13S 30°55' E 031°08'  
2015-Mar-19 21:32S 33°02' E 027°55'1 0.0
2015-Mar-19 06:16S 33°02' E 027°56'9 1.0
2015-Mar-18 20:26S 33°11' E 027°55'19312.8
2015-Mar-18 05:19S 30°54' E 030°36'3912.7
2015-Mar-18 02:17S 30°21' E 030°59'912.1
2015-Mar-18 01:33S 30°14' E 031°04'1111.2
2015-Mar-18 00:33S 30°03' E 031°08'1010.2
2015-Mar-17 23:33S 29°53' E 031°09'6 5.9
2015-Mar-17 22:28S 29°53' E 031°02'  

Dump ship's entire track history